SULAYMANIYAH INTERNATIONAL AIRPORT
  • SulyAir
  • SulyAir
1 1
Arrival

ArrivalsMore >>

Departure

DeparturesMore >>

TAF

TAF ORSU 150500Z 1506/1606 05015KT CAVOK
 BECMG 1600/1602 05025KT=

METARs

METAR ORSU 151000Z 04012KT CAVOK 22/M06 Q1022=